createdAt,value
2019-05-09T00:01:55.327Z,15.45
2019-05-09T00:04:27.283Z,15.45
2019-05-09T00:06:59.261Z,15.44
2019-05-09T00:09:33.434Z,15.43
2019-05-09T00:12:04.908Z,15.43
2019-05-09T00:14:36.861Z,15.43
2019-05-09T00:17:08.818Z,15.42
2019-05-09T00:19:40.746Z,15.44
2019-05-09T00:22:13.630Z,15.44
2019-05-09T00:24:46.157Z,15.44
2019-05-09T00:27:18.106Z,15.45
2019-05-09T00:29:53.381Z,15.46
2019-05-09T00:32:34.099Z,15.47
2019-05-09T00:35:15.544Z,15.48
2019-05-09T00:38:04.088Z,15.47
2019-05-09T00:40:35.458Z,15.47
2019-05-09T00:43:07.411Z,15.46
2019-05-09T00:45:41.047Z,15.47
2019-05-09T00:48:14.711Z,15.48
2019-05-09T00:50:46.635Z,15.49
2019-05-09T00:53:18.594Z,15.50
2019-05-09T00:55:50.533Z,15.50
2019-05-09T00:58:24.126Z,15.49
2019-05-09T01:00:56.364Z,15.51
2019-05-09T01:03:28.301Z,15.50
2019-05-09T01:06:00.241Z,15.49
2019-05-09T01:08:34.930Z,15.46
2019-05-09T01:11:11.991Z,15.44
2019-05-09T01:13:40.791Z,15.41
2019-05-09T01:16:13.422Z,15.37
2019-05-09T01:18:45.662Z,15.32
2019-05-09T01:21:17.678Z,15.30
2019-05-09T01:23:49.638Z,15.26
2019-05-09T01:26:23.289Z,15.24
2019-05-09T01:28:55.501Z,15.23
2019-05-09T01:31:27.452Z,15.21
2019-05-09T01:34:09.790Z,15.16
2019-05-09T01:36:59.429Z,15.13
2019-05-09T01:39:33.564Z,15.09
2019-05-09T01:42:06.156Z,15.05
2019-05-09T01:44:38.103Z,15.01
2019-05-09T01:47:10.082Z,14.99
2019-05-09T01:49:43.197Z,15.00
2019-05-09T01:52:15.304Z,14.97
2019-05-09T01:54:48.879Z,14.95
2019-05-09T01:57:23.106Z,14.95
2019-05-09T01:59:54.468Z,14.96
2019-05-09T02:02:26.480Z,14.97
2019-05-09T02:04:58.408Z,14.96
2019-05-09T02:07:30.344Z,14.95
2019-05-09T02:10:03.424Z,14.96
2019-05-09T02:12:35.457Z,14.96
2019-05-09T02:15:26.373Z,14.96
2019-05-09T02:18:04.263Z,14.95
2019-05-09T02:20:33.604Z,14.92
2019-05-09T02:23:05.597Z,14.91
2019-05-09T02:25:37.550Z,14.89
2019-05-09T02:28:09.501Z,14.87
2019-05-09T02:30:44.773Z,14.88
2019-05-09T02:33:15.079Z,14.89
2019-05-09T02:35:52.849Z,14.89
2019-05-09T02:38:20.923Z,14.87
2019-05-09T02:40:52.932Z,14.85
2019-05-09T02:43:24.860Z,14.85
2019-05-09T02:45:59.564Z,14.81
2019-05-09T02:48:31.931Z,14.78
2019-05-09T02:51:04.093Z,14.76
2019-05-09T02:53:39.053Z,14.77
2019-05-09T02:56:09.656Z,14.77
2019-05-09T02:58:43.215Z,14.76
2019-05-09T03:01:25.516Z,14.77
2019-05-09T03:03:58.899Z,14.77
2019-05-09T03:06:31.160Z,14.77
2019-05-09T03:09:03.500Z,14.78
2019-05-09T03:11:38.528Z,14.79
2019-05-09T03:14:09.483Z,14.79
2019-05-09T03:16:41.570Z,14.81
2019-05-09T03:19:13.510Z,14.81
2019-05-09T03:21:49.776Z,14.82
2019-05-09T03:24:21.729Z,14.84
2019-05-09T03:27:01.197Z,14.81
2019-05-09T03:29:35.090Z,14.79
2019-05-09T03:32:09.163Z,14.81
2019-05-09T03:34:40.785Z,14.83
2019-05-09T03:37:12.725Z,14.84
2019-05-09T03:39:44.687Z,14.85
2019-05-09T03:42:21.254Z,14.85
2019-05-09T03:44:50.255Z,14.84
2019-05-09T03:47:33.277Z,14.85
2019-05-09T03:50:17.666Z,14.86
2019-05-09T03:52:49.917Z,14.83
2019-05-09T03:55:23.500Z,14.84
2019-05-09T03:57:58.042Z,14.85
2019-05-09T04:00:30.282Z,14.59
2019-05-09T04:03:02.207Z,14.88
2019-05-09T04:05:34.148Z,14.90
2019-05-09T04:08:18.541Z,14.90
2019-05-09T04:10:53.013Z,14.90
2019-05-09T04:13:28.334Z,14.91
2019-05-09T04:16:00.468Z,14.93
2019-05-09T04:18:32.428Z,14.94
2019-05-09T04:21:04.371Z,14.94
2019-05-09T04:23:37.905Z,14.95
2019-05-09T04:26:11.791Z,14.95
2019-05-09T04:28:44.694Z,14.95
2019-05-09T04:31:17.812Z,14.94
2019-05-09T04:33:49.948Z,14.93
2019-05-09T04:36:23.637Z,14.95
2019-05-09T04:38:57.474Z,14.95
2019-05-09T04:41:29.228Z,14.93
2019-05-09T04:44:05.030Z,14.89
2019-05-09T04:46:34.881Z,14.89
2019-05-09T04:49:08.170Z,14.90
2019-05-09T04:51:40.309Z,14.90
2019-05-09T04:54:12.315Z,14.90
2019-05-09T04:56:44.336Z,14.88
2019-05-09T04:59:17.916Z,14.88
2019-05-09T05:01:51.764Z,14.89
2019-05-09T05:04:25.374Z,14.88
2019-05-09T05:06:58.456Z,14.87
2019-05-09T05:09:31.146Z,14.88
2019-05-09T05:12:03.113Z,14.87
2019-05-09T05:14:35.064Z,14.86
2019-05-09T05:17:11.208Z,14.85
2019-05-09T05:19:42.062Z,14.83
2019-05-09T05:22:18.495Z,14.82
2019-05-09T05:24:55.449Z,14.81
2019-05-09T05:27:27.850Z,14.83
2019-05-09T05:29:59.734Z,14.83
2019-05-09T05:32:45.454Z,14.86
2019-05-09T05:35:19.037Z,14.87
2019-05-09T05:37:51.033Z,14.89
2019-05-09T05:40:22.975Z,14.90
2019-05-09T05:42:54.907Z,14.93
2019-05-09T05:45:29.520Z,14.94
2019-05-09T05:48:07.906Z,14.96
2019-05-09T05:50:40.034Z,14.96
2019-05-09T05:53:11.970Z,14.97
2019-05-09T05:55:43.964Z,15.00
2019-05-09T05:58:18.000Z,15.02
2019-05-09T06:00:49.829Z,15.05
2019-05-09T06:03:23.042Z,15.07
2019-05-09T06:05:55.276Z,15.09
2019-05-09T06:08:27.639Z,15.11
2019-05-09T06:10:59.618Z,15.12
2019-05-09T06:13:31.547Z,15.15
2019-05-09T06:16:03.495Z,15.21
2019-05-09T06:18:38.286Z,15.28
2019-05-09T06:21:09.317Z,15.36
2019-05-09T06:23:41.258Z,15.41
2019-05-09T06:26:13.192Z,15.45
2019-05-09T06:28:45.206Z,15.49
2019-05-09T06:31:17.892Z,15.53
2019-05-09T06:33:53.536Z,15.56
2019-05-09T06:36:23.799Z,15.57
2019-05-09T06:38:55.750Z,15.60
2019-05-09T06:41:28.550Z,15.63
2019-05-09T06:44:14.223Z,15.66
2019-05-09T06:46:44.112Z,15.69
2019-05-09T06:49:27.640Z,15.69
2019-05-09T06:51:51.310Z,15.73
2019-05-09T06:54:23.248Z,15.80
2019-05-09T06:56:55.237Z,15.87
2019-05-09T06:59:28.298Z,16.00
2019-05-09T07:02:02.333Z,16.11
2019-05-09T07:04:42.034Z,16.26
2019-05-09T07:07:18.350Z,16.41
2019-05-09T07:10:00.983Z,16.47
2019-05-09T07:12:33.306Z,16.51
2019-05-09T07:15:08.796Z,16.56
2019-05-09T07:17:40.400Z,16.59
2019-05-09T07:20:12.974Z,16.62
2019-05-09T07:22:48.112Z,16.63
2019-05-09T07:25:22.025Z,16.65
2019-05-09T07:27:53.969Z,16.69
2019-05-09T07:30:42.674Z,16.71
2019-05-09T07:33:22.020Z,16.73
2019-05-09T07:35:54.020Z,16.75
2019-05-09T07:38:30.371Z,16.79
2019-05-09T07:41:02.539Z,16.83
2019-05-09T07:43:34.517Z,16.92
2019-05-09T07:46:11.071Z,17.01
2019-05-09T07:48:45.087Z,17.10
2019-05-09T07:51:18.071Z,17.20
2019-05-09T07:53:50.273Z,17.34
2019-05-09T07:56:22.735Z,17.49
2019-05-09T07:58:58.301Z,17.61
2019-05-09T08:01:31.519Z,17.72
2019-05-09T08:04:03.446Z,17.79
2019-05-09T08:06:37.809Z,17.82
2019-05-09T08:09:09.186Z,17.85
2019-05-09T08:11:41.194Z,17.85
2019-05-09T08:14:13.134Z,17.88
2019-05-09T08:16:47.391Z,17.90
2019-05-09T08:19:18.731Z,17.91
2019-05-09T08:21:50.951Z,17.91
2019-05-09T08:24:23.116Z,17.93
2019-05-09T08:26:58.030Z,17.91
2019-05-09T08:29:30.068Z,17.91
2019-05-09T08:32:02.030Z,17.89
2019-05-09T08:34:34.047Z,17.87
2019-05-09T08:37:08.172Z,17.85
2019-05-09T08:39:39.667Z,17.82
2019-05-09T08:42:11.600Z,17.82
2019-05-09T08:44:43.995Z,17.80
2019-05-09T08:47:18.494Z,17.85
2019-05-09T08:49:52.006Z,17.93
2019-05-09T08:52:24.017Z,18.01
2019-05-09T08:54:58.282Z,18.04
2019-05-09T08:57:30.216Z,18.07
2019-05-09T09:00:04.811Z,18.10
2019-05-09T09:02:37.648Z,18.11
2019-05-09T09:05:10.071Z,18.12
2019-05-09T09:07:42.128Z,18.14
2019-05-09T09:10:14.563Z,18.16
2019-05-09T09:12:47.801Z,18.20
2019-05-09T09:15:20.945Z,18.24
2019-05-09T09:17:52.880Z,18.29
2019-05-09T09:20:25.069Z,18.37
2019-05-09T09:22:58.218Z,18.46
2019-05-09T09:25:30.397Z,18.56
2019-05-09T09:28:02.392Z,18.67
2019-05-09T09:30:34.373Z,18.69
2019-05-09T09:33:10.109Z,18.75
2019-05-09T09:35:41.003Z,18.81
2019-05-09T09:38:12.955Z,18.93
2019-05-09T09:40:47.565Z,19.03
2019-05-09T09:43:18.960Z,19.10
2019-05-09T09:46:06.300Z,19.16
2019-05-09T09:48:24.670Z,19.26
2019-05-09T09:50:57.975Z,19.35
2019-05-09T09:53:30.419Z,19.43
2019-05-09T09:56:02.606Z,19.42
2019-05-09T09:58:34.672Z,19.36
2019-05-09T10:01:11.636Z,19.36
2019-05-09T10:03:44.149Z,19.44
2019-05-09T10:06:16.199Z,19.51
2019-05-09T10:08:48.978Z,19.54
2019-05-09T10:11:21.654Z,19.54
2019-05-09T10:13:53.710Z,19.52
2019-05-09T10:16:47.650Z,19.53
2019-05-09T10:19:38.395Z,19.54
2019-05-09T10:22:23.788Z,19.58
2019-05-09T10:24:51.887Z,19.59
2019-05-09T10:27:24.185Z,19.65
2019-05-09T10:29:57.439Z,19.69
2019-05-09T10:32:29.784Z,19.76
2019-05-09T10:35:01.906Z,19.83
2019-05-09T10:37:33.892Z,19.93
2019-05-09T10:40:07.722Z,20.05
2019-05-09T10:42:50.646Z,20.12
2019-05-09T10:45:30.087Z,20.14
2019-05-09T10:48:02.096Z,20.14
2019-05-09T10:50:35.054Z,20.13
2019-05-09T10:53:08.035Z,20.15
2019-05-09T10:55:40.308Z,20.22
2019-05-09T10:58:12.263Z,20.22
2019-05-09T11:00:44.537Z,20.19
2019-05-09T11:03:18.044Z,20.18
2019-05-09T11:05:50.199Z,20.22
2019-05-09T11:08:22.156Z,20.27
2019-05-09T11:10:54.091Z,20.33
2019-05-09T11:13:28.527Z,20.36
2019-05-09T11:15:59.742Z,20.39
2019-05-09T11:18:31.765Z,20.35
2019-05-09T11:21:03.733Z,20.29
2019-05-09T11:23:35.678Z,20.31
2019-05-09T11:26:08.404Z,20.35
2019-05-09T11:28:40.635Z,20.41
2019-05-09T11:31:12.834Z,20.51
2019-05-09T11:33:45.169Z,20.57
2019-05-09T11:36:20.797Z,20.57
2019-05-09T11:38:51.076Z,20.62
2019-05-09T11:41:23.067Z,20.69
2019-05-09T11:43:55.027Z,20.76
2019-05-09T11:46:28.761Z,20.83
2019-05-09T11:49:01.011Z,20.94
2019-05-09T11:51:32.961Z,20.77
2019-05-09T11:54:04.935Z,21.02
2019-05-09T11:56:38.439Z,21.08
2019-05-09T11:59:10.677Z,21.12
2019-05-09T12:01:42.628Z,21.13
2019-05-09T12:04:14.704Z,21.08
2019-05-09T12:06:49.116Z,21.04
2019-05-09T12:09:20.340Z,21.04
2019-05-09T12:11:52.654Z,21.02
2019-05-09T12:14:27.494Z,20.97
2019-05-09T12:16:59.208Z,20.87
2019-05-09T12:19:31.153Z,20.78
2019-05-09T12:22:03.151Z,20.74
2019-05-09T12:24:35.175Z,20.72
2019-05-09T12:27:08.793Z,20.68
2019-05-09T12:29:40.923Z,20.76
2019-05-09T12:32:12.860Z,20.90
2019-05-09T12:34:44.805Z,21.00
2019-05-09T12:37:18.224Z,21.11
2019-05-09T12:39:50.641Z,21.17
2019-05-09T12:42:22.606Z,21.23
2019-05-09T12:44:54.586Z,21.33
2019-05-09T12:47:29.985Z,21.41
2019-05-09T12:50:03.078Z,21.49
2019-05-09T12:52:35.213Z,21.53
2019-05-09T12:55:12.270Z,21.46
2019-05-09T12:57:43.030Z,21.34
2019-05-09T13:00:18.694Z,21.25
2019-05-09T13:02:50.818Z,21.17
2019-05-09T13:05:22.834Z,21.10
2019-05-09T13:07:54.865Z,21.01
2019-05-09T13:10:28.348Z,20.97
2019-05-09T13:13:00.424Z,20.95
2019-05-09T13:15:34.484Z,20.89
2019-05-09T13:18:21.116Z,20.77
2019-05-09T13:20:43.245Z,20.67
2019-05-09T13:23:17.758Z,20.65
2019-05-09T13:25:50.352Z,20.66
2019-05-09T13:28:24.021Z,20.72
2019-05-09T13:30:58.377Z,20.69
2019-05-09T13:33:29.738Z,20.70
2019-05-09T13:36:01.713Z,20.66
2019-05-09T13:38:33.677Z,20.60
2019-05-09T13:41:08.410Z,20.51
2019-05-09T13:43:47.688Z,20.41
2019-05-09T13:46:13.018Z,20.32
2019-05-09T13:49:04.537Z,20.25
2019-05-09T13:51:18.773Z,20.17
2019-05-09T13:53:50.807Z,20.12
2019-05-09T13:56:22.750Z,20.07
2019-05-09T13:58:54.781Z,20.03
2019-05-09T14:01:26.758Z,19.97
2019-05-09T14:03:59.194Z,19.88
2019-05-09T14:06:31.736Z,19.78
2019-05-09T14:09:05.532Z,19.64
2019-05-09T14:11:37.466Z,19.37
2019-05-09T14:14:09.428Z,19.16
2019-05-09T14:16:43.635Z,19.08
2019-05-09T14:19:33.260Z,19.06
2019-05-09T14:21:49.302Z,19.11
2019-05-09T14:24:22.021Z,19.19
2019-05-09T14:26:54.063Z,19.27
2019-05-09T14:29:30.891Z,19.33
2019-05-09T14:31:59.791Z,19.43
2019-05-09T14:34:32.088Z,19.51
2019-05-09T14:37:04.470Z,19.53
2019-05-09T14:39:39.900Z,19.57
2019-05-09T14:42:10.141Z,19.63
2019-05-09T14:44:43.052Z,19.67
2019-05-09T14:47:17.455Z,19.68
2019-05-09T14:49:50.474Z,19.64
2019-05-09T14:52:22.675Z,19.59
2019-05-09T14:54:57.985Z,19.54
2019-05-09T14:57:29.297Z,19.50
2019-05-09T15:00:01.295Z,19.46
2019-05-09T15:02:33.488Z,19.41
2019-05-09T15:05:09.575Z,19.37
2019-05-09T15:07:40.530Z,19.35
2019-05-09T15:10:13.052Z,19.31
2019-05-09T15:12:45.373Z,19.28
2019-05-09T15:15:18.468Z,19.25
2019-05-09T15:17:50.681Z,19.21
2019-05-09T15:20:22.700Z,18.95
2019-05-09T15:22:54.714Z,19.17
2019-05-09T15:25:28.086Z,19.12
2019-05-09T15:28:03.455Z,19.07
2019-05-09T15:30:38.504Z,18.98
2019-05-09T15:33:11.286Z,18.91
2019-05-09T15:35:43.352Z,18.80
2019-05-09T15:38:17.943Z,18.75
2019-05-09T15:40:49.004Z,18.74
2019-05-09T15:43:21.025Z,18.75
2019-05-09T15:46:09.559Z,18.80
2019-05-09T15:48:41.507Z,18.87
2019-05-09T15:51:13.964Z,18.91
2019-05-09T15:53:48.484Z,18.94
2019-05-09T15:56:19.721Z,18.90
2019-05-09T15:58:51.657Z,18.87
2019-05-09T16:01:23.808Z,18.79
2019-05-09T16:03:57.538Z,18.74
2019-05-09T16:06:33.030Z,18.73
2019-05-09T16:09:07.842Z,18.71
2019-05-09T16:11:37.836Z,18.69
2019-05-09T16:14:10.319Z,18.72
2019-05-09T16:16:42.353Z,18.76
2019-05-09T16:19:14.506Z,18.77
2019-05-09T16:21:47.863Z,18.78
2019-05-09T16:24:20.439Z,18.82
2019-05-09T16:26:53.051Z,18.85
2019-05-09T16:29:29.299Z,18.91
2019-05-09T16:32:01.343Z,18.93
2019-05-09T16:34:34.128Z,18.97
2019-05-09T16:37:07.663Z,18.99
2019-05-09T16:39:39.923Z,19.02
2019-05-09T16:42:12.135Z,18.99
2019-05-09T16:44:44.082Z,18.81
2019-05-09T16:47:21.879Z,18.95
2019-05-09T16:49:50.962Z,18.97
2019-05-09T16:52:22.950Z,18.95
2019-05-09T16:54:58.542Z,18.94
2019-05-09T17:00:43.963Z,18.89
2019-05-09T17:03:17.689Z,18.86
2019-05-09T17:05:49.958Z,18.86
2019-05-09T17:08:21.981Z,18.87
2019-05-09T17:10:53.960Z,18.89
2019-05-09T17:13:28.883Z,18.89
2019-05-09T17:16:00.367Z,18.83
2019-05-09T17:18:33.187Z,18.83
2019-05-09T17:21:21.508Z,18.80
2019-05-09T17:23:50.123Z,18.75
2019-05-09T17:26:22.808Z,18.70
2019-05-09T17:28:54.787Z,18.64
2019-05-09T17:31:27.642Z,18.60
2019-05-09T17:34:00.197Z,18.53
2019-05-09T17:36:32.162Z,18.45
2019-05-09T17:39:07.966Z,18.39
2019-05-09T17:41:39.634Z,18.37
2019-05-09T17:44:11.598Z,18.35
2019-05-09T17:46:43.584Z,18.30
2019-05-09T17:49:17.485Z,18.24
2019-05-09T17:51:49.212Z,18.19
2019-05-09T17:54:21.479Z,18.14
2019-05-09T17:56:53.422Z,18.09
2019-05-09T17:59:25.457Z,18.03
2019-05-09T18:01:57.908Z,17.94
2019-05-09T18:04:30.075Z,17.82
2019-05-09T18:07:03.003Z,17.72
2019-05-09T18:09:35.284Z,17.65
2019-05-09T18:12:08.307Z,17.62
2019-05-09T18:14:40.610Z,17.57
2019-05-09T18:17:13.013Z,17.49
2019-05-09T18:19:44.989Z,17.43
2019-05-09T18:22:18.610Z,17.41
2019-05-09T18:24:51.077Z,17.38
2019-05-09T18:27:23.311Z,17.36
2019-05-09T18:29:55.265Z,17.34
2019-05-09T18:32:38.371Z,17.31
2019-05-09T18:35:15.584Z,17.29
2019-05-09T18:37:48.283Z,17.28
2019-05-09T18:40:20.957Z,17.28
2019-05-09T18:42:52.919Z,17.27
2019-05-09T18:45:28.082Z,17.25
2019-05-09T18:47:59.635Z,17.21
2019-05-09T18:50:31.576Z,17.19
2019-05-09T18:53:03.609Z,17.17
2019-05-09T18:55:35.550Z,17.14
2019-05-09T18:58:07.589Z,17.09
2019-05-09T19:00:39.575Z,17.06
2019-05-09T19:03:11.608Z,17.07
2019-05-09T19:05:43.775Z,17.07
2019-05-09T19:08:15.722Z,17.05
2019-05-09T19:10:51.809Z,17.05
2019-05-09T19:13:21.322Z,17.04
2019-05-09T19:16:04.002Z,17.01
2019-05-09T19:18:43.662Z,16.98
2019-05-09T19:21:19.813Z,16.92
2019-05-09T19:23:51.748Z,16.89
2019-05-09T19:26:39.136Z,16.86
2019-05-09T19:29:11.165Z,16.82
2019-05-09T19:31:43.146Z,16.85
2019-05-09T19:34:15.174Z,16.85
2019-05-09T19:36:47.214Z,16.84
2019-05-09T19:39:19.155Z,16.79
2019-05-09T19:41:51.599Z,16.75
2019-05-09T19:44:23.582Z,16.72
2019-05-09T19:46:56.045Z,16.71
2019-05-09T19:49:27.978Z,16.69
2019-05-09T19:52:00.211Z,16.63
2019-05-09T19:54:32.546Z,16.59
2019-05-09T19:57:04.523Z,16.55
2019-05-09T19:59:36.467Z,16.55
2019-05-09T20:02:08.439Z,16.54
2019-05-09T20:04:40.709Z,16.54
2019-05-09T20:07:12.662Z,16.55
2019-05-09T20:09:52.860Z,16.59
2019-05-09T20:12:26.467Z,16.60
2019-05-09T20:14:58.416Z,16.62
2019-05-09T20:17:30.386Z,16.63
2019-05-09T20:20:02.423Z,16.65
2019-05-09T20:22:34.343Z,16.64
2019-05-09T20:25:07.994Z,16.63
2019-05-09T20:27:40.010Z,16.60
2019-05-09T20:30:12.404Z,16.54
2019-05-09T20:32:44.313Z,16.51
2019-05-09T20:35:16.571Z,16.48
2019-05-09T20:37:48.883Z,16.46
2019-05-09T20:40:21.348Z,16.45
2019-05-09T20:42:53.516Z,16.46
2019-05-09T20:45:25.642Z,16.44
2019-05-09T20:47:57.844Z,16.43
2019-05-09T20:50:30.285Z,16.43
2019-05-09T20:53:09.487Z,16.41
2019-05-09T20:55:36.323Z,16.41
2019-05-09T20:58:08.467Z,16.40
2019-05-09T21:00:40.643Z,16.40
2019-05-09T21:03:12.776Z,16.41
2019-05-09T21:05:45.257Z,16.41
2019-05-09T21:08:17.405Z,16.44
2019-05-09T21:10:49.523Z,16.43
2019-05-09T21:13:23.514Z,16.44
2019-05-09T21:15:55.692Z,16.42
2019-05-09T21:18:27.926Z,16.41
2019-05-09T21:21:00.109Z,16.38
2019-05-09T21:23:35.268Z,16.37
2019-05-09T21:26:07.946Z,16.37
2019-05-09T21:28:40.965Z,16.34
2019-05-09T21:31:15.345Z,16.33
2019-05-09T21:33:47.806Z,16.31
2019-05-09T21:36:19.754Z,16.29
2019-05-09T21:38:51.777Z,16.28
2019-05-09T21:41:23.737Z,16.27
2019-05-09T21:43:55.686Z,16.26
2019-05-09T21:46:27.650Z,16.23
2019-05-09T21:48:59.606Z,16.20
2019-05-09T21:51:31.966Z,16.16
2019-05-09T21:54:04.249Z,16.13
2019-05-09T21:56:36.530Z,16.12
2019-05-09T21:59:08.654Z,16.08
2019-05-09T22:01:41.308Z,16.04
2019-05-09T22:04:13.324Z,15.99
2019-05-09T22:06:45.697Z,15.95
2019-05-09T22:09:17.665Z,15.90
2019-05-09T22:11:49.602Z,15.87
2019-05-09T22:14:21.789Z,15.86
2019-05-09T22:16:56.733Z,15.84
2019-05-09T22:19:28.954Z,15.83
2019-05-09T22:22:00.901Z,15.80
2019-05-09T22:24:32.880Z,15.77
2019-05-09T22:27:05.207Z,15.73
2019-05-09T22:29:37.150Z,15.70
2019-05-09T22:32:09.153Z,15.66
2019-05-09T22:34:41.393Z,15.63
2019-05-09T22:37:13.433Z,15.58
2019-05-09T22:39:45.439Z,15.55
2019-05-09T22:42:17.400Z,15.50
2019-05-09T22:47:39.236Z,15.43
2019-05-09T22:50:11.695Z,15.41
2019-05-09T22:52:43.668Z,15.38
2019-05-09T22:55:15.838Z,15.36
2019-05-09T22:57:48.110Z,15.34
2019-05-09T23:00:20.264Z,15.33
2019-05-09T23:02:52.547Z,15.28
2019-05-09T23:05:24.577Z,15.24
2019-05-09T23:07:56.679Z,15.19
2019-05-09T23:10:28.634Z,15.17
2019-05-09T23:13:00.570Z,15.13
2019-05-09T23:15:32.587Z,15.12
2019-05-09T23:18:04.509Z,15.12
2019-05-09T23:20:43.938Z,15.11
2019-05-09T23:23:29.614Z,15.10
2019-05-09T23:26:01.632Z,15.09
2019-05-09T23:28:33.593Z,15.09
2019-05-09T23:31:07.511Z,15.06
2019-05-09T23:33:40.939Z,15.02
2019-05-09T23:36:12.906Z,14.97
2019-05-09T23:39:03.058Z,14.92
2019-05-09T23:41:35.089Z,14.87
2019-05-09T23:44:07.145Z,14.84
2019-05-09T23:46:39.177Z,14.81
2019-05-09T23:49:11.186Z,14.78
2019-05-09T23:51:52.511Z,14.77
2019-05-09T23:54:46.355Z,14.75
2019-05-09T23:57:34.013Z,14.75
